sensor_id;sensor_type;location;lat;lon;timestamp;P1;durP1;ratioP1;P2;durP2;ratioP2
4323;SDS011;2175;51.018;6.994;2023-06-01T00:02:19;11.00;;;3.00;;
4323;SDS011;2175;51.018;6.994;2023-06-01T00:04:45;5.40;;;3.40;;
4323;SDS011;2175;51.018;6.994;2023-06-01T00:07:13;5.90;;;3.37;;
4323;SDS011;2175;51.018;6.994;2023-06-01T00:09:39;5.13;;;3.13;;
4323;SDS011;2175;51.018;6.994;2023-06-01T00:12:05;7.27;;;3.30;;
4323;SDS011;2175;51.018;6.994;2023-06-01T00:14:31;9.57;;;3.50;;
4323;SDS011;2175;51.018;6.994;2023-06-01T00:16:57;9.60;;;3.37;;
4323;SDS011;2175;51.018;6.994;2023-06-01T00:19:23;8.00;;;3.13;;
4323;SDS011;2175;51.018;6.994;2023-06-01T00:21:51;7.60;;;3.77;;
4323;SDS011;2175;51.018;6.994;2023-06-01T00:24:21;4.37;;;3.00;;
4323;SDS011;2175;51.018;6.994;2023-06-01T00:26:47;5.63;;;3.40;;
4323;SDS011;2175;51.018;6.994;2023-06-01T00:29:12;9.50;;;3.33;;
4323;SDS011;2175;51.018;6.994;2023-06-01T00:31:38;8.93;;;3.47;;
4323;SDS011;2175;51.018;6.994;2023-06-01T00:34:04;12.13;;;4.10;;
4323;SDS011;2175;51.018;6.994;2023-06-01T00:36:30;10.90;;;3.37;;
4323;SDS011;2175;51.018;6.994;2023-06-01T00:38:56;6.10;;;3.27;;
4323;SDS011;2175;51.018;6.994;2023-06-01T00:41:27;7.20;;;3.50;;
4323;SDS011;2175;51.018;6.994;2023-06-01T00:43:53;11.67;;;3.57;;
4323;SDS011;2175;51.018;6.994;2023-06-01T00:46:18;7.10;;;3.30;;
4323;SDS011;2175;51.018;6.994;2023-06-01T00:48:44;6.97;;;3.50;;
4323;SDS011;2175;51.018;6.994;2023-06-01T00:51:10;6.70;;;3.10;;
4323;SDS011;2175;51.018;6.994;2023-06-01T00:53:37;8.93;;;3.43;;
4323;SDS011;2175;51.018;6.994;2023-06-01T00:56:03;7.53;;;3.17;;
4323;SDS011;2175;51.018;6.994;2023-06-01T00:58:29;8.30;;;3.63;;
4323;SDS011;2175;51.018;6.994;2023-06-01T01:00:55;7.93;;;3.20;;
4323;SDS011;2175;51.018;6.994;2023-06-01T01:03:21;9.90;;;3.40;;
4323;SDS011;2175;51.018;6.994;2023-06-01T01:05:50;6.20;;;2.93;;
4323;SDS011;2175;51.018;6.994;2023-06-01T01:08:46;5.67;;;3.20;;
4323;SDS011;2175;51.018;6.994;2023-06-01T01:11:32;8.10;;;3.13;;
4323;SDS011;2175;51.018;6.994;2023-06-01T01:14:16;4.87;;;2.80;;
4323;SDS011;2175;51.018;6.994;2023-06-01T01:30:45;7.60;;;3.17;;
4323;SDS011;2175;51.018;6.994;2023-06-01T01:33:11;5.30;;;3.40;;
4323;SDS011;2175;51.018;6.994;2023-06-01T01:35:38;13.53;;;2.93;;
4323;SDS011;2175;51.018;6.994;2023-06-01T01:38:05;7.43;;;3.50;;
4323;SDS011;2175;51.018;6.994;2023-06-01T01:40:31;9.37;;;4.40;;
4323;SDS011;2175;51.018;6.994;2023-06-01T01:42:56;5.90;;;3.17;;
4323;SDS011;2175;51.018;6.994;2023-06-01T01:45:23;6.63;;;3.20;;
4323;SDS011;2175;51.018;6.994;2023-06-01T01:50:14;6.30;;;3.37;;
4323;SDS011;2175;51.018;6.994;2023-06-01T01:52:43;14.73;;;3.30;;
4323;SDS011;2175;51.018;6.994;2023-06-01T01:55:10;18.13;;;4.30;;
4323;SDS011;2175;51.018;6.994;2023-06-01T01:57:37;8.80;;;3.63;;
4323;SDS011;2175;51.018;6.994;2023-06-01T02:00:08;9.10;;;3.67;;
4323;SDS011;2175;51.018;6.994;2023-06-01T02:02:36;9.57;;;3.60;;
4323;SDS011;2175;51.018;6.994;2023-06-01T02:05:02;14.53;;;3.87;;
4323;SDS011;2175;51.018;6.994;2023-06-01T02:07:28;24.17;;;4.33;;
4323;SDS011;2175;51.018;6.994;2023-06-01T02:09:53;22.27;;;3.83;;
4323;SDS011;2175;51.018;6.994;2023-06-01T02:12:19;7.80;;;3.60;;
4323;SDS011;2175;51.018;6.994;2023-06-01T02:14:45;8.73;;;3.90;;
4323;SDS011;2175;51.018;6.994;2023-06-01T02:17:10;9.37;;;3.83;;
4323;SDS011;2175;51.018;6.994;2023-06-01T02:19:36;11.30;;;3.60;;
4323;SDS011;2175;51.018;6.994;2023-06-01T02:22:01;6.50;;;3.80;;
4323;SDS011;2175;51.018;6.994;2023-06-01T02:24:27;9.23;;;3.73;;
4323;SDS011;2175;51.018;6.994;2023-06-01T02:26:53;10.80;;;3.77;;
4323;SDS011;2175;51.018;6.994;2023-06-01T02:29:19;7.77;;;3.30;;
4323;SDS011;2175;51.018;6.994;2023-06-01T02:31:48;7.00;;;3.60;;
4323;SDS011;2175;51.018;6.994;2023-06-01T02:34:15;9.70;;;4.17;;
4323;SDS011;2175;51.018;6.994;2023-06-01T02:36:41;7.07;;;3.23;;
4323;SDS011;2175;51.018;6.994;2023-06-01T02:39:07;8.63;;;4.20;;
4323;SDS011;2175;51.018;6.994;2023-06-01T02:41:33;11.97;;;4.20;;
4323;SDS011;2175;51.018;6.994;2023-06-01T02:43:59;10.20;;;4.27;;
4323;SDS011;2175;51.018;6.994;2023-06-01T02:46:25;8.40;;;3.80;;
4323;SDS011;2175;51.018;6.994;2023-06-01T02:48:51;10.37;;;3.80;;
4323;SDS011;2175;51.018;6.994;2023-06-01T02:51:17;11.57;;;4.43;;
4323;SDS011;2175;51.018;6.994;2023-06-01T02:53:46;5.40;;;3.90;;
4323;SDS011;2175;51.018;6.994;2023-06-01T02:56:11;6.50;;;3.70;;
4323;SDS011;2175;51.018;6.994;2023-06-01T02:58:37;7.50;;;4.43;;
4323;SDS011;2175;51.018;6.994;2023-06-01T03:01:03;9.77;;;4.33;;
4323;SDS011;2175;51.018;6.994;2023-06-01T03:03:28;10.80;;;5.20;;
4323;SDS011;2175;51.018;6.994;2023-06-01T03:05:54;10.00;;;5.00;;
4323;SDS011;2175;51.018;6.994;2023-06-01T03:08:20;10.40;;;5.30;;
4323;SDS011;2175;51.018;6.994;2023-06-01T03:10:46;8.13;;;5.30;;
4323;SDS011;2175;51.018;6.994;2023-06-01T03:13:12;11.43;;;5.90;;
4323;SDS011;2175;51.018;6.994;2023-06-01T03:15:37;9.67;;;4.70;;
4323;SDS011;2175;51.018;6.994;2023-06-01T03:18:03;11.17;;;5.20;;
4323;SDS011;2175;51.018;6.994;2023-06-01T03:20:33;8.43;;;4.70;;
4323;SDS011;2175;51.018;6.994;2023-06-01T03:22:59;7.10;;;5.27;;
4323;SDS011;2175;51.018;6.994;2023-06-01T03:25:25;10.97;;;5.20;;
4323;SDS011;2175;51.018;6.994;2023-06-01T03:27:51;14.57;;;6.20;;
4323;SDS011;2175;51.018;6.994;2023-06-01T03:30:17;9.87;;;5.20;;
4323;SDS011;2175;51.018;6.994;2023-06-01T03:32:43;11.83;;;5.60;;
4323;SDS011;2175;51.018;6.994;2023-06-01T03:35:10;12.47;;;5.80;;
4323;SDS011;2175;51.018;6.994;2023-06-01T03:37:38;21.60;;;5.60;;
4323;SDS011;2175;51.018;6.994;2023-06-01T03:40:05;13.77;;;6.27;;
4323;SDS011;2175;51.018;6.994;2023-06-01T03:45:05;11.30;;;6.50;;
4323;SDS011;2175;51.018;6.994;2023-06-01T03:47:31;10.87;;;5.83;;
4323;SDS011;2175;51.018;6.994;2023-06-01T03:49:57;10.67;;;5.80;;
4323;SDS011;2175;51.018;6.994;2023-06-01T03:52:23;31.87;;;7.97;;
4323;SDS011;2175;51.018;6.994;2023-06-01T03:54:50;10.07;;;6.30;;
4323;SDS011;2175;51.018;6.994;2023-06-01T03:57:16;9.07;;;6.63;;
4323;SDS011;2175;51.018;6.994;2023-06-01T03:59:42;11.33;;;7.03;;
4323;SDS011;2175;51.018;6.994;2023-06-01T04:02:07;13.20;;;6.80;;
4323;SDS011;2175;51.018;6.994;2023-06-01T04:04:34;11.03;;;6.20;;
4323;SDS011;2175;51.018;6.994;2023-06-01T04:07:00;24.83;;;7.80;;
4323;SDS011;2175;51.018;6.994;2023-06-01T04:09:28;14.97;;;7.50;;
4323;SDS011;2175;51.018;6.994;2023-06-01T04:11:54;14.57;;;7.00;;
4323;SDS011;2175;51.018;6.994;2023-06-01T04:14:20;12.70;;;7.17;;
4323;SDS011;2175;51.018;6.994;2023-06-01T04:16:46;17.87;;;7.67;;
4323;SDS011;2175;51.018;6.994;2023-06-01T04:19:13;11.47;;;7.20;;
4323;SDS011;2175;51.018;6.994;2023-06-01T04:21:38;17.20;;;7.90;;
4323;SDS011;2175;51.018;6.994;2023-06-01T04:24:04;14.00;;;8.00;;
4323;SDS011;2175;51.018;6.994;2023-06-01T04:26:29;15.40;;;8.77;;
4323;SDS011;2175;51.018;6.994;2023-06-01T04:28:57;13.27;;;8.67;;
4323;SDS011;2175;51.018;6.994;2023-06-01T04:31:23;15.53;;;8.93;;
4323;SDS011;2175;51.018;6.994;2023-06-01T04:33:49;17.60;;;9.30;;
4323;SDS011;2175;51.018;6.994;2023-06-01T04:36:21;13.60;;;9.37;;
4323;SDS011;2175;51.018;6.994;2023-06-01T04:38:50;16.33;;;10.20;;
4323;SDS011;2175;51.018;6.994;2023-06-01T04:41:19;19.57;;;10.43;;
4323;SDS011;2175;51.018;6.994;2023-06-01T04:43:46;16.77;;;10.50;;
4323;SDS011;2175;51.018;6.994;2023-06-01T04:46:20;21.77;;;11.43;;
4323;SDS011;2175;51.018;6.994;2023-06-01T04:48:48;19.90;;;11.17;;
4323;SDS011;2175;51.018;6.994;2023-06-01T04:51:16;19.50;;;11.50;;
4323;SDS011;2175;51.018;6.994;2023-06-01T04:53:43;16.30;;;11.20;;
4323;SDS011;2175;51.018;6.994;2023-06-01T04:56:09;20.50;;;12.10;;
4323;SDS011;2175;51.018;6.994;2023-06-01T04:58:35;18.27;;;12.60;;
4323;SDS011;2175;51.018;6.994;2023-06-01T05:01:01;20.10;;;13.10;;
4323;SDS011;2175;51.018;6.994;2023-06-01T05:03:27;23.20;;;13.97;;
4323;SDS011;2175;51.018;6.994;2023-06-01T05:05:53;22.03;;;14.10;;
4323;SDS011;2175;51.018;6.994;2023-06-01T05:08:18;22.00;;;14.37;;
4323;SDS011;2175;51.018;6.994;2023-06-01T05:10:44;23.00;;;14.77;;
4323;SDS011;2175;51.018;6.994;2023-06-01T05:13:09;27.73;;;14.40;;
4323;SDS011;2175;51.018;6.994;2023-06-01T05:15:35;29.37;;;17.13;;
4323;SDS011;2175;51.018;6.994;2023-06-01T05:18:01;24.17;;;16.70;;
4323;SDS011;2175;51.018;6.994;2023-06-01T05:20:26;25.07;;;16.53;;
4323;SDS011;2175;51.018;6.994;2023-06-01T05:22:52;24.77;;;16.97;;
4323;SDS011;2175;51.018;6.994;2023-06-01T05:25:17;25.30;;;16.80;;
4323;SDS011;2175;51.018;6.994;2023-06-01T05:27:43;29.80;;;19.37;;
4323;SDS011;2175;51.018;6.994;2023-06-01T05:30:09;29.80;;;20.13;;
4323;SDS011;2175;51.018;6.994;2023-06-01T05:32:35;30.73;;;20.17;;
4323;SDS011;2175;51.018;6.994;2023-06-01T05:35:00;30.27;;;20.63;;
4323;SDS011;2175;51.018;6.994;2023-06-01T05:37:26;36.80;;;23.43;;
4323;SDS011;2175;51.018;6.994;2023-06-01T05:39:51;39.30;;;24.27;;
4323;SDS011;2175;51.018;6.994;2023-06-01T05:42:17;38.43;;;27.00;;
4323;SDS011;2175;51.018;6.994;2023-06-01T05:44:42;50.33;;;26.00;;
4323;SDS011;2175;51.018;6.994;2023-06-01T05:47:08;43.40;;;26.77;;
4323;SDS011;2175;51.018;6.994;2023-06-01T05:49:36;45.23;;;26.13;;
4323;SDS011;2175;51.018;6.994;2023-06-01T05:52:01;41.33;;;25.43;;
4323;SDS011;2175;51.018;6.994;2023-06-01T05:54:27;47.43;;;28.40;;
4323;SDS011;2175;51.018;6.994;2023-06-01T05:56:53;55.60;;;31.20;;
4323;SDS011;2175;51.018;6.994;2023-06-01T05:59:19;50.27;;;31.40;;
4323;SDS011;2175;51.018;6.994;2023-06-01T06:01:46;47.43;;;30.73;;
4323;SDS011;2175;51.018;6.994;2023-06-01T06:04:15;57.93;;;30.77;;
4323;SDS011;2175;51.018;6.994;2023-06-01T06:06:48;54.13;;;31.27;;
4323;SDS011;2175;51.018;6.994;2023-06-01T06:09:13;49.00;;;30.70;;
4323;SDS011;2175;51.018;6.994;2023-06-01T06:11:40;53.10;;;31.30;;
4323;SDS011;2175;51.018;6.994;2023-06-01T06:14:06;51.40;;;29.43;;
4323;SDS011;2175;51.018;6.994;2023-06-01T06:16:31;50.40;;;31.17;;
4323;SDS011;2175;51.018;6.994;2023-06-01T06:18:57;46.33;;;29.70;;
4323;SDS011;2175;51.018;6.994;2023-06-01T06:21:22;51.33;;;31.10;;
4323;SDS011;2175;51.018;6.994;2023-06-01T06:23:48;45.10;;;29.37;;
4323;SDS011;2175;51.018;6.994;2023-06-01T06:26:14;43.67;;;29.03;;
4323;SDS011;2175;51.018;6.994;2023-06-01T06:28:40;56.27;;;34.37;;
4323;SDS011;2175;51.018;6.994;2023-06-01T06:31:05;58.70;;;32.13;;
4323;SDS011;2175;51.018;6.994;2023-06-01T06:33:31;56.83;;;32.50;;
4323;SDS011;2175;51.018;6.994;2023-06-01T06:35:57;52.60;;;32.07;;
4323;SDS011;2175;51.018;6.994;2023-06-01T06:38:22;60.10;;;32.20;;
4323;SDS011;2175;51.018;6.994;2023-06-01T06:40:48;50.70;;;30.80;;
4323;SDS011;2175;51.018;6.994;2023-06-01T06:43:13;55.47;;;32.13;;
4323;SDS011;2175;51.018;6.994;2023-06-01T06:45:40;48.83;;;31.17;;
4323;SDS011;2175;51.018;6.994;2023-06-01T06:48:06;56.80;;;32.90;;
4323;SDS011;2175;51.018;6.994;2023-06-01T06:50:31;53.37;;;30.10;;
4323;SDS011;2175;51.018;6.994;2023-06-01T06:52:57;48.77;;;30.23;;
4323;SDS011;2175;51.018;6.994;2023-06-01T06:55:24;49.73;;;32.57;;
4323;SDS011;2175;51.018;6.994;2023-06-01T06:57:50;50.47;;;31.90;;
4323;SDS011;2175;51.018;6.994;2023-06-01T07:00:15;73.90;;;33.80;;
4323;SDS011;2175;51.018;6.994;2023-06-01T07:02:42;58.50;;;35.07;;
4323;SDS011;2175;51.018;6.994;2023-06-01T07:05:09;52.80;;;32.87;;
4323;SDS011;2175;51.018;6.994;2023-06-01T07:07:35;47.67;;;30.93;;
4323;SDS011;2175;51.018;6.994;2023-06-01T07:10:01;52.57;;;32.27;;
4323;SDS011;2175;51.018;6.994;2023-06-01T07:12:27;59.90;;;35.60;;
4323;SDS011;2175;51.018;6.994;2023-06-01T07:14:53;75.80;;;36.23;;
4323;SDS011;2175;51.018;6.994;2023-06-01T07:17:18;57.67;;;36.30;;
4323;SDS011;2175;51.018;6.994;2023-06-01T07:19:44;50.63;;;32.93;;
4323;SDS011;2175;51.018;6.994;2023-06-01T07:22:10;49.07;;;33.10;;
4323;SDS011;2175;51.018;6.994;2023-06-01T07:24:35;45.73;;;31.50;;
4323;SDS011;2175;51.018;6.994;2023-06-01T07:27:01;50.83;;;33.17;;
4323;SDS011;2175;51.018;6.994;2023-06-01T07:29:26;55.77;;;33.80;;
4323;SDS011;2175;51.018;6.994;2023-06-01T07:31:53;59.80;;;34.73;;
4323;SDS011;2175;51.018;6.994;2023-06-01T07:34:18;52.37;;;33.30;;
4323;SDS011;2175;51.018;6.994;2023-06-01T07:36:48;48.47;;;32.73;;
4323;SDS011;2175;51.018;6.994;2023-06-01T07:39:14;55.73;;;33.90;;
4323;SDS011;2175;51.018;6.994;2023-06-01T07:41:40;47.53;;;32.10;;
4323;SDS011;2175;51.018;6.994;2023-06-01T07:44:06;46.67;;;30.60;;
4323;SDS011;2175;51.018;6.994;2023-06-01T07:46:32;45.47;;;31.03;;
4323;SDS011;2175;51.018;6.994;2023-06-01T07:48:58;39.67;;;30.33;;
4323;SDS011;2175;51.018;6.994;2023-06-01T07:51:23;44.83;;;32.23;;
4323;SDS011;2175;51.018;6.994;2023-06-01T07:53:49;48.77;;;33.53;;
4323;SDS011;2175;51.018;6.994;2023-06-01T07:56:15;48.00;;;31.57;;
4323;SDS011;2175;51.018;6.994;2023-06-01T07:58:40;47.40;;;31.10;;
4323;SDS011;2175;51.018;6.994;2023-06-01T08:01:07;46.33;;;30.50;;
4323;SDS011;2175;51.018;6.994;2023-06-01T08:03:32;60.73;;;29.10;;
4323;SDS011;2175;51.018;6.994;2023-06-01T08:05:58;42.73;;;30.23;;
4323;SDS011;2175;51.018;6.994;2023-06-01T08:08:30;53.70;;;32.60;;
4323;SDS011;2175;51.018;6.994;2023-06-01T08:10:56;46.13;;;30.60;;
4323;SDS011;2175;51.018;6.994;2023-06-01T08:13:22;45.90;;;30.20;;
4323;SDS011;2175;51.018;6.994;2023-06-01T08:15:50;42.23;;;28.73;;
4323;SDS011;2175;51.018;6.994;2023-06-01T08:18:17;45.87;;;28.73;;
4323;SDS011;2175;51.018;6.994;2023-06-01T08:20:44;42.60;;;28.87;;
4323;SDS011;2175;51.018;6.994;2023-06-01T08:23:10;41.13;;;26.40;;
4323;SDS011;2175;51.018;6.994;2023-06-01T08:25:36;41.80;;;26.63;;
4323;SDS011;2175;51.018;6.994;2023-06-01T08:28:02;39.00;;;26.90;;
4323;SDS011;2175;51.018;6.994;2023-06-01T08:30:28;42.23;;;26.90;;
4323;SDS011;2175;51.018;6.994;2023-06-01T08:32:53;40.63;;;26.77;;
4323;SDS011;2175;51.018;6.994;2023-06-01T08:35:20;39.83;;;27.00;;
4323;SDS011;2175;51.018;6.994;2023-06-01T08:37:46;38.77;;;27.40;;
4323;SDS011;2175;51.018;6.994;2023-06-01T08:40:12;38.80;;;27.40;;
4323;SDS011;2175;51.018;6.994;2023-06-01T08:42:48;42.90;;;27.93;;
4323;SDS011;2175;51.018;6.994;2023-06-01T08:45:25;38.47;;;26.23;;
4323;SDS011;2175;51.018;6.994;2023-06-01T08:47:55;39.83;;;23.60;;
4323;SDS011;2175;51.018;6.994;2023-06-01T08:50:22;37.20;;;24.67;;
4323;SDS011;2175;51.018;6.994;2023-06-01T08:52:49;39.77;;;26.00;;
4323;SDS011;2175;51.018;6.994;2023-06-01T08:55:17;34.63;;;23.37;;
4323;SDS011;2175;51.018;6.994;2023-06-01T08:57:43;30.33;;;23.53;;
4323;SDS011;2175;51.018;6.994;2023-06-01T09:00:10;29.53;;;23.20;;
4323;SDS011;2175;51.018;6.994;2023-06-01T09:02:36;32.87;;;23.97;;
4323;SDS011;2175;51.018;6.994;2023-06-01T09:05:02;32.60;;;22.40;;
4323;SDS011;2175;51.018;6.994;2023-06-01T09:07:29;38.00;;;23.97;;
4323;SDS011;2175;51.018;6.994;2023-06-01T09:09:56;38.63;;;22.80;;
4323;SDS011;2175;51.018;6.994;2023-06-01T09:12:26;37.23;;;24.07;;
4323;SDS011;2175;51.018;6.994;2023-06-01T09:17:33;27.87;;;21.73;;
4323;SDS011;2175;51.018;6.994;2023-06-01T09:20:00;31.50;;;20.53;;
4323;SDS011;2175;51.018;6.994;2023-06-01T09:22:37;39.03;;;23.17;;
4323;SDS011;2175;51.018;6.994;2023-06-01T09:25:07;32.57;;;21.30;;
4323;SDS011;2175;51.018;6.994;2023-06-01T09:27:43;36.90;;;24.43;;
4323;SDS011;2175;51.018;6.994;2023-06-01T09:30:17;29.57;;;23.27;;
4323;SDS011;2175;51.018;6.994;2023-06-01T09:32:44;29.43;;;22.80;;
4323;SDS011;2175;51.018;6.994;2023-06-01T09:35:15;29.27;;;21.07;;
4323;SDS011;2175;51.018;6.994;2023-06-01T09:37:59;31.87;;;21.20;;
4323;SDS011;2175;51.018;6.994;2023-06-01T09:40:28;33.23;;;19.53;;
4323;SDS011;2175;51.018;6.994;2023-06-01T09:42:54;30.00;;;19.40;;
4323;SDS011;2175;51.018;6.994;2023-06-01T09:45:20;26.10;;;20.40;;
4323;SDS011;2175;51.018;6.994;2023-06-01T09:47:48;27.87;;;21.73;;
4323;SDS011;2175;51.018;6.994;2023-06-01T09:53:03;24.83;;;20.33;;
4323;SDS011;2175;51.018;6.994;2023-06-01T09:55:29;25.87;;;20.30;;
4323;SDS011;2175;51.018;6.994;2023-06-01T10:00:45;28.30;;;19.43;;
4323;SDS011;2175;51.018;6.994;2023-06-01T10:03:13;27.23;;;20.40;;
4323;SDS011;2175;51.018;6.994;2023-06-01T10:05:43;28.70;;;20.93;;
4323;SDS011;2175;51.018;6.994;2023-06-01T10:08:13;24.00;;;17.80;;
4323;SDS011;2175;51.018;6.994;2023-06-01T10:10:41;27.13;;;16.50;;
4323;SDS011;2175;51.018;6.994;2023-06-01T10:13:10;22.00;;;15.27;;
4323;SDS011;2175;51.018;6.994;2023-06-01T10:15:36;23.43;;;16.33;;
4323;SDS011;2175;51.018;6.994;2023-06-01T10:18:02;19.63;;;13.73;;
4323;SDS011;2175;51.018;6.994;2023-06-01T10:20:33;17.80;;;13.00;;
4323;SDS011;2175;51.018;6.994;2023-06-01T10:23:03;20.67;;;12.70;;
4323;SDS011;2175;51.018;6.994;2023-06-01T10:25:37;22.30;;;12.67;;
4323;SDS011;2175;51.018;6.994;2023-06-01T10:28:10;17.03;;;11.90;;
4323;SDS011;2175;51.018;6.994;2023-06-01T10:30:36;19.73;;;12.77;;
4323;SDS011;2175;51.018;6.994;2023-06-01T10:33:02;22.87;;;12.63;;
4323;SDS011;2175;51.018;6.994;2023-06-01T10:40:34;19.57;;;11.90;;
4323;SDS011;2175;51.018;6.994;2023-06-01T10:43:00;18.17;;;11.93;;
4323;SDS011;2175;51.018;6.994;2023-06-01T10:45:39;28.50;;;10.80;;
4323;SDS011;2175;51.018;6.994;2023-06-01T10:48:06;17.63;;;11.77;;
4323;SDS011;2175;51.018;6.994;2023-06-01T10:50:35;15.67;;;10.37;;
4323;SDS011;2175;51.018;6.994;2023-06-01T11:01:35;17.43;;;10.77;;
4323;SDS011;2175;51.018;6.994;2023-06-01T11:04:05;20.07;;;10.97;;
4323;SDS011;2175;51.018;6.994;2023-06-01T11:06:33;19.03;;;11.20;;
4323;SDS011;2175;51.018;6.994;2023-06-01T11:09:01;21.07;;;11.53;;
4323;SDS011;2175;51.018;6.994;2023-06-01T11:14:20;15.20;;;9.33;;
4323;SDS011;2175;51.018;6.994;2023-06-01T11:16:51;16.77;;;9.90;;
4323;SDS011;2175;51.018;6.994;2023-06-01T11:19:21;17.33;;;9.80;;
4323;SDS011;2175;51.018;6.994;2023-06-01T11:21:54;22.80;;;9.90;;
4323;SDS011;2175;51.018;6.994;2023-06-01T11:24:25;20.10;;;9.57;;
4323;SDS011;2175;51.018;6.994;2023-06-01T11:26:58;15.50;;;9.83;;
4323;SDS011;2175;51.018;6.994;2023-06-01T11:29:26;20.00;;;10.60;;
4323;SDS011;2175;51.018;6.994;2023-06-01T11:31:52;15.60;;;10.17;;
4323;SDS011;2175;51.018;6.994;2023-06-01T11:34:24;18.10;;;10.07;;
4323;SDS011;2175;51.018;6.994;2023-06-01T11:36:56;21.87;;;11.50;;
4323;SDS011;2175;51.018;6.994;2023-06-01T11:39:23;22.63;;;10.60;;
4323;SDS011;2175;51.018;6.994;2023-06-01T11:42:12;23.23;;;11.17;;
4323;SDS011;2175;51.018;6.994;2023-06-01T11:44:41;16.40;;;10.10;;
4323;SDS011;2175;51.018;6.994;2023-06-01T11:47:08;18.10;;;11.13;;
4323;SDS011;2175;51.018;6.994;2023-06-01T11:49:48;18.43;;;10.10;;
4323;SDS011;2175;51.018;6.994;2023-06-01T11:52:18;18.53;;;10.37;;
4323;SDS011;2175;51.018;6.994;2023-06-01T11:54:45;18.60;;;10.50;;
4323;SDS011;2175;51.018;6.994;2023-06-01T11:57:11;17.17;;;10.57;;
4323;SDS011;2175;51.018;6.994;2023-06-01T11:59:38;15.77;;;9.50;;
4323;SDS011;2175;51.018;6.994;2023-06-01T12:02:24;17.43;;;10.03;;
4323;SDS011;2175;51.018;6.994;2023-06-01T12:05:01;21.80;;;12.50;;
4323;SDS011;2175;51.018;6.994;2023-06-01T12:07:32;23.40;;;11.90;;
4323;SDS011;2175;51.018;6.994;2023-06-01T12:10:10;23.73;;;14.40;;
4323;SDS011;2175;51.018;6.994;2023-06-01T12:12:39;18.07;;;12.13;;
4323;SDS011;2175;51.018;6.994;2023-06-01T12:15:06;28.40;;;15.23;;
4323;SDS011;2175;51.018;6.994;2023-06-01T12:17:50;22.80;;;15.10;;
4323;SDS011;2175;51.018;6.994;2023-06-01T12:20:27;23.03;;;12.97;;
4323;SDS011;2175;51.018;6.994;2023-06-01T12:23:01;23.00;;;17.30;;
4323;SDS011;2175;51.018;6.994;2023-06-01T12:25:28;24.47;;;16.70;;
4323;SDS011;2175;51.018;6.994;2023-06-01T12:28:08;21.80;;;14.60;;
4323;SDS011;2175;51.018;6.994;2023-06-01T12:30:35;21.70;;;14.97;;
4323;SDS011;2175;51.018;6.994;2023-06-01T12:33:01;28.30;;;14.57;;
4323;SDS011;2175;51.018;6.994;2023-06-01T12:35:29;26.30;;;16.43;;
4323;SDS011;2175;51.018;6.994;2023-06-01T12:38:13;23.10;;;15.50;;
4323;SDS011;2175;51.018;6.994;2023-06-01T12:40:39;26.27;;;16.57;;
4323;SDS011;2175;51.018;6.994;2023-06-01T12:43:05;26.50;;;16.93;;
4323;SDS011;2175;51.018;6.994;2023-06-01T12:45:43;30.27;;;17.30;;
4323;SDS011;2175;51.018;6.994;2023-06-01T12:48:09;27.27;;;16.43;;
4323;SDS011;2175;51.018;6.994;2023-06-01T12:50:55;26.23;;;16.57;;
4323;SDS011;2175;51.018;6.994;2023-06-01T12:53:21;26.53;;;17.67;;
4323;SDS011;2175;51.018;6.994;2023-06-01T12:55:46;28.60;;;19.47;;
4323;SDS011;2175;51.018;6.994;2023-06-01T12:58:12;29.67;;;17.70;;
4323;SDS011;2175;51.018;6.994;2023-06-01T13:00:38;26.70;;;16.20;;
4323;SDS011;2175;51.018;6.994;2023-06-01T13:03:03;29.77;;;15.70;;
4323;SDS011;2175;51.018;6.994;2023-06-01T13:05:29;25.90;;;16.70;;
4323;SDS011;2175;51.018;6.994;2023-06-01T13:07:54;30.90;;;17.03;;
4323;SDS011;2175;51.018;6.994;2023-06-01T13:10:20;21.33;;;14.10;;
4323;SDS011;2175;51.018;6.994;2023-06-01T13:12:45;29.37;;;15.23;;
4323;SDS011;2175;51.018;6.994;2023-06-01T13:15:11;18.00;;;12.33;;
4323;SDS011;2175;51.018;6.994;2023-06-01T13:17:37;28.10;;;12.10;;
4323;SDS011;2175;51.018;6.994;2023-06-01T13:20:03;20.63;;;12.40;;
4323;SDS011;2175;51.018;6.994;2023-06-01T13:22:31;18.87;;;13.07;;
4323;SDS011;2175;51.018;6.994;2023-06-01T13:24:56;22.53;;;12.20;;
4323;SDS011;2175;51.018;6.994;2023-06-01T13:27:22;22.40;;;11.30;;
4323;SDS011;2175;51.018;6.994;2023-06-01T13:29:48;21.97;;;10.37;;
4323;SDS011;2175;51.018;6.994;2023-06-01T13:32:14;21.00;;;11.70;;
4323;SDS011;2175;51.018;6.994;2023-06-01T13:34:40;24.03;;;11.60;;
4323;SDS011;2175;51.018;6.994;2023-06-01T13:37:05;23.60;;;10.17;;
4323;SDS011;2175;51.018;6.994;2023-06-01T13:39:31;37.07;;;11.23;;
4323;SDS011;2175;51.018;6.994;2023-06-01T13:41:57;22.70;;;10.17;;
4323;SDS011;2175;51.018;6.994;2023-06-01T13:44:23;16.20;;;9.67;;
4323;SDS011;2175;51.018;6.994;2023-06-01T13:46:48;16.13;;;8.30;;
4323;SDS011;2175;51.018;6.994;2023-06-01T13:49:14;23.80;;;10.83;;
4323;SDS011;2175;51.018;6.994;2023-06-01T13:51:40;20.73;;;9.20;;
4323;SDS011;2175;51.018;6.994;2023-06-01T13:54:06;21.03;;;10.20;;
4323;SDS011;2175;51.018;6.994;2023-06-01T13:56:31;22.37;;;9.40;;
4323;SDS011;2175;51.018;6.994;2023-06-01T13:58:57;14.90;;;8.03;;
4323;SDS011;2175;51.018;6.994;2023-06-01T14:01:23;18.87;;;9.00;;
4323;SDS011;2175;51.018;6.994;2023-06-01T14:03:49;23.90;;;9.10;;
4323;SDS011;2175;51.018;6.994;2023-06-01T14:06:14;16.63;;;9.20;;
4323;SDS011;2175;51.018;6.994;2023-06-01T14:08:40;17.00;;;8.93;;
4323;SDS011;2175;51.018;6.994;2023-06-01T14:11:05;17.83;;;8.73;;
4323;SDS011;2175;51.018;6.994;2023-06-01T14:13:31;14.43;;;9.60;;
4323;SDS011;2175;51.018;6.994;2023-06-01T14:15:57;16.90;;;9.93;;
4323;SDS011;2175;51.018;6.994;2023-06-01T14:18:22;18.00;;;9.73;;
4323;SDS011;2175;51.018;6.994;2023-06-01T14:20:48;22.80;;;9.27;;
4323;SDS011;2175;51.018;6.994;2023-06-01T14:23:14;15.17;;;9.60;;
4323;SDS011;2175;51.018;6.994;2023-06-01T14:25:40;22.77;;;9.47;;
4323;SDS011;2175;51.018;6.994;2023-06-01T14:28:06;25.50;;;11.53;;
4323;SDS011;2175;51.018;6.994;2023-06-01T14:30:31;16.97;;;8.60;;
4323;SDS011;2175;51.018;6.994;2023-06-01T14:32:57;20.27;;;11.17;;
4323;SDS011;2175;51.018;6.994;2023-06-01T14:35:22;14.87;;;10.03;;
4323;SDS011;2175;51.018;6.994;2023-06-01T14:37:48;30.87;;;9.60;;
4323;SDS011;2175;51.018;6.994;2023-06-01T14:40:14;21.33;;;10.47;;
4323;SDS011;2175;51.018;6.994;2023-06-01T14:42:40;22.70;;;7.97;;
4323;SDS011;2175;51.018;6.994;2023-06-01T14:45:06;12.03;;;7.80;;
4323;SDS011;2175;51.018;6.994;2023-06-01T14:47:32;19.83;;;9.17;;
4323;SDS011;2175;51.018;6.994;2023-06-01T14:49:58;15.20;;;8.20;;
4323;SDS011;2175;51.018;6.994;2023-06-01T14:52:24;18.00;;;8.53;;
4323;SDS011;2175;51.018;6.994;2023-06-01T14:54:49;20.93;;;9.20;;
4323;SDS011;2175;51.018;6.994;2023-06-01T14:57:15;16.37;;;8.97;;
4323;SDS011;2175;51.018;6.994;2023-06-01T14:59:41;13.93;;;8.10;;
4323;SDS011;2175;51.018;6.994;2023-06-01T15:02:07;21.53;;;9.23;;
4323;SDS011;2175;51.018;6.994;2023-06-01T15:04:33;14.03;;;8.13;;
4323;SDS011;2175;51.018;6.994;2023-06-01T15:06:59;16.50;;;7.50;;
4323;SDS011;2175;51.018;6.994;2023-06-01T15:09:25;36.40;;;10.50;;
4323;SDS011;2175;51.018;6.994;2023-06-01T15:11:51;24.13;;;7.63;;
4323;SDS011;2175;51.018;6.994;2023-06-01T15:14:17;19.27;;;8.43;;
4323;SDS011;2175;51.018;6.994;2023-06-01T15:16:43;17.17;;;7.40;;
4323;SDS011;2175;51.018;6.994;2023-06-01T15:19:09;17.10;;;8.43;;
4323;SDS011;2175;51.018;6.994;2023-06-01T15:21:40;16.50;;;8.83;;
4323;SDS011;2175;51.018;6.994;2023-06-01T15:24:07;18.33;;;8.67;;
4323;SDS011;2175;51.018;6.994;2023-06-01T15:26:37;15.10;;;7.17;;
4323;SDS011;2175;51.018;6.994;2023-06-01T15:29:04;16.43;;;7.87;;
4323;SDS011;2175;51.018;6.994;2023-06-01T15:31:30;10.90;;;7.23;;
4323;SDS011;2175;51.018;6.994;2023-06-01T15:33:55;11.30;;;7.30;;
4323;SDS011;2175;51.018;6.994;2023-06-01T15:36:21;13.27;;;7.23;;
4323;SDS011;2175;51.018;6.994;2023-06-01T15:38:47;23.03;;;7.87;;
4323;SDS011;2175;51.018;6.994;2023-06-01T15:41:13;11.20;;;7.17;;